CMA CGM Balzac — DIHN — position and weather

sailwx.info

Track history (hours):
 
Tides and Currents Weather Stations Pressure Air Temp Water Temp Dewpoint Dewpoint Depression Visibility Wind Speed Wind Dir Waves Ship Positions

CMA CGM Balzac

Last reported at 2016-Aug-06 12:31 UTC. Time now 2016-Aug-27 13:16 UTC.
Position N 02°30' E 101°36'.
Warning: this ship's position is 21 days out of date.

Length 300.3 m; beam 40.3 m; draft 14 m.

Type: Ship. MMSI: 211378810.

Date/timePositionNaut miles runAvg speedWind from/ knotsBaromVisibWave heightAir tempDewpointWater temp
2016-Aug-06 12:31N 02°30' E 101°36'1412.6
2016-Aug-06 11:26N 02°22' E 101°47'4214.2
2016-Aug-06 08:27N 01°55' E 102°20'1314.7
2016-Aug-06 07:33N 01°50' E 102°32'7712.8
2016-Aug-06 01:32N 01°12' E 103°39'8 2.7
2016-Aug-05 22:33N 01°15' E 103°47'0 0.0
2016-Aug-05 20:34N 01°15' E 103°47'0 0.0
2016-Aug-05 19:33N 01°15' E 103°47'0 0.0
2016-Aug-05 18:34N 01°15' E 103°47'0 0.0
2016-Aug-05 17:33N 01°15' E 103°47'0 0.0
2016-Aug-05 16:33N 01°15' E 103°47'0 0.0
2016-Aug-05 15:32N 01°15' E 103°47'0 0.0
2016-Aug-05 14:32N 01°15' E 103°47'0 0.0
2016-Aug-05 13:34N 01°15' E 103°47'0 0.0
2016-Aug-05 12:33N 01°15' E 103°47'0 0.4
2016-Aug-05 11:33N 01°16' E 103°46'6 6.1
2016-Aug-05 10:33N 01°13' E 103°52'10 9.8
2016-Aug-05 09:33N 01°16' E 104°02'  
2016-Jul-28 20:26N 36°19' E 122°34'2311.9
2016-Jul-28 18:30N 36°29' E 122°60'1212.2
2016-Jul-28 17:29N 36°41' E 123°05'10110.1
2016-Jul-28 07:31N 38°12' E 122°10'1313.0
2016-Jul-28 06:33N 38°15' E 121°55'1413.4
2016-Jul-28 05:32N 38°16' E 121°38'1413.8
2016-Jul-28 04:31N 38°21' E 121°21'1513.6
2016-Jul-28 03:24N 38°28' E 121°04'2310.6
2016-Jul-28 01:16N 38°36' E 120°37'913.0
2016-Jul-28 00:33N 38°38' E 120°25'1312.7
2016-Jul-27 23:33N 38°39' E 120°09'1212.5
2016-Jul-27 22:33N 38°41' E 119°53'8613.3
2016-Jul-27 16:07N 38°55' E 118°04'711.6
2016-Jul-27 15:33N 38°57' E 117°56'7 7.4
2016-Jul-27 14:33N 38°58' E 117°47'0 0.0
2016-Jul-27 13:31N 38°58' E 117°47'  
Track history (hours):
 
Tides and Currents Weather Stations Pressure Air Temp Water Temp Dewpoint Dewpoint Depression Visibility Wind Speed Wind Dir Waves Ship Positions

CMA CGM Balzac

Last reported at 2016-Aug-06 12:31 UTC. Time now 2016-Aug-27 13:16 UTC.
Position N 02°30' E 101°36'.
Warning: this ship's position is 21 days out of date.

Length 300.3 m; beam 40.3 m; draft 14 m.

Type: Ship. MMSI: 211378810.

Date/timePositionNaut miles runAvg speedWind from/ knotsBaromVisibWave heightAir tempDewpointWater temp
2016-Aug-06 12:31N 02°30' E 101°36'1412.6
2016-Aug-06 11:26N 02°22' E 101°47'4214.2
2016-Aug-06 08:27N 01°55' E 102°20'1314.7
2016-Aug-06 07:33N 01°50' E 102°32'7712.8
2016-Aug-06 01:32N 01°12' E 103°39'8 2.7
2016-Aug-05 22:33N 01°15' E 103°47'0 0.0
2016-Aug-05 20:34N 01°15' E 103°47'0 0.0
2016-Aug-05 19:33N 01°15' E 103°47'0 0.0
2016-Aug-05 18:34N 01°15' E 103°47'0 0.0
2016-Aug-05 17:33N 01°15' E 103°47'0 0.0
2016-Aug-05 16:33N 01°15' E 103°47'0 0.0
2016-Aug-05 15:32N 01°15' E 103°47'0 0.0
2016-Aug-05 14:32N 01°15' E 103°47'0 0.0
2016-Aug-05 13:34N 01°15' E 103°47'0 0.0
2016-Aug-05 12:33N 01°15' E 103°47'0 0.4
2016-Aug-05 11:33N 01°16' E 103°46'6 6.1
2016-Aug-05 10:33N 01°13' E 103°52'10 9.8
2016-Aug-05 09:33N 01°16' E 104°02'  
2016-Jul-28 20:26N 36°19' E 122°34'2311.9
2016-Jul-28 18:30N 36°29' E 122°60'1212.2
2016-Jul-28 17:29N 36°41' E 123°05'10110.1
2016-Jul-28 07:31N 38°12' E 122°10'1313.0
2016-Jul-28 06:33N 38°15' E 121°55'1413.4
2016-Jul-28 05:32N 38°16' E 121°38'1413.8
2016-Jul-28 04:31N 38°21' E 121°21'1513.6
2016-Jul-28 03:24N 38°28' E 121°04'2310.6
2016-Jul-28 01:16N 38°36' E 120°37'913.0
2016-Jul-28 00:33N 38°38' E 120°25'1312.7
2016-Jul-27 23:33N 38°39' E 120°09'1212.5
2016-Jul-27 22:33N 38°41' E 119°53'8613.3
2016-Jul-27 16:07N 38°55' E 118°04'711.6
2016-Jul-27 15:33N 38°57' E 117°56'7 7.4
2016-Jul-27 14:33N 38°58' E 117°47'0 0.0
2016-Jul-27 13:31N 38°58' E 117°47'  

Dump ship's entire track history